Time;durP1;ratioP1;P1;durP2;ratioP2;P2;SDS_P1;SDS_P2;PMS_P1;PMS_P2;Temp;Humidity;BMP_temperature;BMP_pressure;BME280_temperature;BME280_humidity;BME280_pressure;Samples;Min_cycle;Max_cycle;Signal;HPM_P1;HPM_P2
2022/12/14 00:00:51;;;;;;;10.20;6.28;;;22.00;99.90;;;;;;5053614;28;20404;-54
2022/12/14 00:03:17;;;;;;;10.02;5.82;;;22.00;99.90;;;;;;5053799;28;20108;-54
2022/12/14 00:05:44;;;;;;;9.65;6.00;;;22.00;99.90;;;;;;5053453;28;20029;-53
2022/12/14 00:08:11;;;;;;;9.73;5.95;;;22.00;99.90;;;;;;5053427;28;20368;-53
2022/12/14 00:10:38;;;;;;;10.88;6.40;;;22.00;99.90;;;;;;5053321;28;20037;-53
2022/12/14 00:13:04;;;;;;;11.90;6.95;;;22.00;99.90;;;;;;5053354;28;20021;-58
2022/12/14 00:15:31;;;;;;;21.25;8.88;;;22.00;99.90;;;;;;5053467;28;20100;-58
2022/12/14 00:17:57;;;;;;;58.03;23.13;;;22.00;99.90;;;;;;5053211;28;20021;-58
2022/12/14 00:20:23;;;;;;;64.93;28.58;;;22.00;99.90;;;;;;5053349;28;20411;-58
2022/12/14 00:22:49;;;;;;;59.03;23.17;;;22.00;99.90;;;;;;5053428;28;20024;-57
2022/12/14 00:25:14;;;;;;;53.50;20.38;;;22.00;99.90;;;;;;5053056;28;20048;-58
2022/12/14 00:27:45;;;;;;;97.63;31.30;;;22.00;99.90;;;;;;5053127;28;20107;-57
2022/12/14 00:30:16;;;;;;;119.47;37.85;;;22.00;99.90;;;;;;5048677;28;20391;-57
2022/12/14 00:32:42;;;;;;;85.28;32.20;;;22.00;99.90;;;;;;5051631;28;20029;-57
2022/12/14 00:35:09;;;;;;;81.10;30.60;;;22.00;99.90;;;;;;5018395;28;20387;-57
2022/12/14 00:37:36;;;;;;;84.80;29.50;;;22.00;99.90;;;;;;5053037;28;20025;-56
2022/12/14 00:40:03;;;;;;;82.22;29.80;;;22.00;99.90;;;;;;5039047;28;20021;-56
2022/12/14 00:42:29;;;;;;;96.35;30.65;;;22.00;99.90;;;;;;5052734;28;20108;-54
2022/12/14 00:44:55;;;;;;;82.68;32.78;;;22.00;99.90;;;;;;5052704;28;20100;-56
2022/12/14 00:47:21;;;;;;;102.97;33.88;;;22.00;99.90;;;;;;5052883;28;20118;-56
2022/12/14 00:49:46;;;;;;;84.47;30.60;;;22.00;99.90;;;;;;5052542;28;20391;-57
2022/12/14 00:52:12;;;;;;;90.57;31.35;;;22.00;99.90;;;;;;5052218;28;20383;-59
2022/12/14 00:54:38;;;;;;;77.75;30.48;;;22.00;99.90;;;;;;5034372;28;20086;-58
2022/12/14 00:57:03;;;;;;;81.43;28.45;;;22.00;99.90;;;;;;5052577;28;20025;-58
2022/12/14 00:59:29;;;;;;;82.97;31.08;;;22.00;99.90;;;;;;5068249;22;20013;-58
2022/12/14 01:01:55;;;;;;;76.20;28.65;;;22.00;99.90;;;;;;5032219;28;20033;-59
2022/12/14 01:04:23;;;;;;;78.25;28.13;;;22.00;99.90;;;;;;5029997;28;20022;-59
2022/12/14 01:06:51;;;;;;;71.05;26.80;;;22.00;99.90;;;;;;5031426;28;20036;-58
2022/12/14 01:09:18;;;;;;;66.00;24.88;;;22.00;99.90;;;;;;5032199;28;20100;-59
2022/12/14 01:11:45;;;;;;;69.70;25.88;;;22.00;99.90;;;;;;5032300;28;20031;-54
2022/12/14 01:14:13;;;;;;;58.88;22.52;;;22.00;99.90;;;;;;5032072;28;20071;-55
2022/12/14 01:16:38;;;;;;;66.30;24.55;;;22.00;99.90;;;;;;5026889;28;20024;-53
2022/12/14 01:19:05;;;;;;;71.53;26.30;;;22.00;99.90;;;;;;5031940;28;20017;-57
2022/12/14 01:21:30;;;;;;;61.67;24.52;;;22.10;99.90;;;;;;5032053;28;20087;-53
2022/12/14 01:24:01;;;;;;;66.32;24.42;;;22.00;99.90;;;;;;5031889;28;20472;-57
2022/12/14 01:26:29;;;;;;;57.55;23.50;;;22.00;99.90;;;;;;5032045;28;20464;-57
2022/12/14 01:28:57;;;;;;;56.70;23.67;;;22.00;99.90;;;;;;5032086;28;20029;-57
2022/12/14 01:31:29;;;;;;;65.15;25.60;;;22.00;99.90;;;;;;5031985;28;20026;-55
2022/12/14 01:33:55;;;;;;;58.45;24.05;;;22.00;99.90;;;;;;5032148;28;20025;-59
2022/12/14 01:36:22;;;;;;;61.83;23.30;;;22.10;99.90;;;;;;5031799;28;20067;-56
2022/12/14 01:38:53;;;;;;;58.78;23.15;;;22.00;99.90;;;;;;5031866;28;20041;-56
2022/12/14 01:41:30;;;;;;;58.47;23.58;;;22.00;99.90;;;;;;5029337;28;20375;-59
2022/12/14 01:43:59;;;;;;;58.22;23.17;;;22.00;99.90;;;;;;5031912;28;20535;-55
2022/12/14 01:46:31;;;;;;;53.15;21.00;;;22.00;99.90;;;;;;5032058;28;20524;-57
2022/12/14 01:49:09;;;;;;;52.47;21.45;;;22.00;99.90;;;;;;5031882;28;20021;-55
2022/12/14 01:51:36;;;;;;;50.42;22.20;;;22.10;99.90;;;;;;5013994;28;20072;-55
2022/12/14 01:54:06;;;;;;;50.43;20.60;;;22.00;99.90;;;;;;5014152;28;20479;-56
2022/12/14 01:56:34;;;;;;;47.78;20.88;;;22.00;99.90;;;;;;5014585;28;20033;-57
2022/12/14 01:59:07;;;;;;;45.88;20.77;;;22.00;99.90;;;;;;5029255;28;20022;-55
2022/12/14 02:01:33;;;;;;;46.63;18.75;;;22.00;99.90;;;;;;5043458;22;20064;-62
2022/12/14 02:04:00;;;;;;;45.17;19.63;;;22.10;99.90;;;;;;5026483;28;20028;-61
2022/12/14 02:06:31;;;;;;;47.70;18.75;;;22.10;99.90;;;;;;5026200;28;20017;-62
2022/12/14 02:08:57;;;;;;;44.83;21.90;;;22.00;99.90;;;;;;5024864;28;20041;-61
2022/12/14 02:11:34;;;;;;;50.50;20.73;;;22.00;99.90;;;;;;5025831;28;20384;-59
2022/12/14 02:14:00;;;;;;;46.22;18.63;;;22.00;99.90;;;;;;5019028;28;20052;-60
2022/12/14 02:16:26;;;;;;;50.22;21.15;;;22.00;99.90;;;;;;5026721;28;20119;-59
2022/12/14 02:18:52;;;;;;;46.13;20.30;;;22.00;99.90;;;;;;5026609;28;20018;-60
2022/12/14 02:21:23;;;;;;;44.85;19.48;;;22.00;99.90;;;;;;5021723;28;20353;-60
2022/12/14 02:24:11;;;;;;;40.80;18.77;;;22.00;99.90;;;;;;5007224;28;20021;-59
2022/12/14 02:26:58;;;;;;;46.33;19.60;;;22.00;99.90;;;;;;5026355;28;20040;-58
2022/12/14 02:29:43;;;;;;;38.72;19.13;;;22.10;99.90;;;;;;5023276;28;20037;-60
2022/12/14 02:32:08;;;;;;;44.20;18.88;;;22.00;99.90;;;;;;5022134;28;20058;-59
2022/12/14 02:34:54;;;;;;;45.85;18.90;;;22.00;99.90;;;;;;5006531;28;20052;-58
2022/12/14 02:37:42;;;;;;;40.42;17.42;;;22.00;99.90;;;;;;5022042;28;20105;-62
2022/12/14 02:40:19;;;;;;;35.78;17.05;;;22.00;99.90;;;;;;5027324;28;20084;-55
2022/12/14 02:42:57;;;;;;;41.92;17.85;;;22.00;99.90;;;;;;5016524;28;20029;-57
2022/12/14 02:45:25;;;;;;;;;;;22.00;99.90;;;;;;5015117;28;20046;-56
2022/12/14 02:48:01;;;;;;;44.70;17.67;;;22.00;99.90;;;;;;5022727;28;19992;-59
2022/12/14 02:50:57;;;;;;;37.95;17.55;;;22.00;99.90;;;;;;5031930;28;20119;-56
2022/12/14 02:53:36;;;;;;;45.55;19.60;;;22.00;99.90;;;;;;5023335;28;20022;-57
2022/12/14 02:56:07;;;;;;;36.95;16.05;;;22.00;99.90;;;;;;5031134;28;20020;-57
2022/12/14 02:58:40;;;;;;;33.25;16.98;;;22.00;99.90;;;;;;5031038;28;20617;-57
2022/12/14 03:01:11;;;;;;;39.70;17.27;;;22.00;99.90;;;;;;5031501;28;20519;-56
2022/12/14 03:03:38;;;;;;;36.63;18.23;;;22.00;99.90;;;;;;5016687;28;20022;-56
2022/12/14 03:06:13;;;;;;;37.17;16.85;;;21.90;99.90;;;;;;5014513;28;20080;-57
2022/12/14 03:08:43;;;;;;;34.10;15.60;;;22.00;99.90;;;;;;5014417;28;20112;-56
2022/12/14 03:11:18;;;;;;;39.22;16.23;;;22.00;99.90;;;;;;5012956;28;20065;-56
2022/12/14 03:13:55;;;;;;;34.10;16.48;;;22.00;99.90;;;;;;5014222;28;20488;-56
2022/12/14 03:16:26;;;;;;;35.40;17.10;;;22.00;99.90;;;;;;5014105;28;20033;-56
2022/12/14 03:19:27;;;;;;;34.00;16.83;;;22.00;99.90;;;;;;5014132;28;20030;-57
2022/12/14 03:21:58;;;;;;;36.38;15.68;;;21.90;99.90;;;;;;5028073;28;20075;-56
2022/12/14 03:24:41;;;;;;;31.92;15.13;;;21.90;99.90;;;;;;5030562;28;20494;-56
2022/12/14 03:27:14;;;;;;;34.58;15.98;;;21.90;99.90;;;;;;5031173;28;20026;-56
2022/12/14 03:30:09;;;;;;;32.03;15.63;;;21.90;99.90;;;;;;5029109;28;20038;-57
2022/12/14 03:32:41;;;;;;;37.17;15.25;;;21.90;99.90;;;;;;5014934;28;20022;-57
2022/12/14 03:35:22;;;;;;;34.08;15.63;;;21.90;99.90;;;;;;5013952;28;20484;-57
2022/12/14 03:38:01;;;;;;;35.38;16.25;;;21.90;99.90;;;;;;5011659;28;20037;-57
2022/12/14 03:40:46;;;;;;;29.50;14.55;;;21.90;99.90;;;;;;5012322;28;20520;-56
2022/12/14 03:43:35;;;;;;;29.23;13.90;;;21.90;99.90;;;;;;5012916;28;20045;-57
2022/12/14 03:46:12;;;;;;;34.10;13.70;;;21.90;99.90;;;;;;5013766;28;20567;-56
2022/12/14 03:49:10;;;;;;;23.67;13.83;;;21.90;99.90;;;;;;5011230;28;20365;-57
2022/12/14 03:52:07;;;;;;;29.58;14.25;;;21.90;99.90;;;;;;5029845;28;20275;-56
2022/12/14 03:55:05;;;;;;;26.90;13.15;;;21.90;99.90;;;;;;5015786;28;20476;-56
2022/12/14 03:57:58;;;;;;;31.70;13.95;;;21.90;99.90;;;;;;5013300;28;20034;-56
2022/12/14 04:00:25;;;;;;;26.63;12.93;;;21.90;99.90;;;;;;5029727;28;20038;-57
2022/12/14 04:02:53;;;;;;;26.70;13.93;;;21.90;99.90;;;;;;5033289;28;20110;-57
2022/12/14 04:05:22;;;;;;;30.73;13.32;;;21.80;99.90;;;;;;5031237;28;20047;-58
2022/12/14 04:08:04;;;;;;;29.85;13.50;;;21.90;99.90;;;;;;5022731;28;20025;-58
2022/12/14 04:19:06;;;;;;;25.52;12.52;;;21.90;99.90;;;;;;5013088;28;20105;-58
2022/12/14 04:21:44;;;;;;;26.15;11.63;;;21.80;99.90;;;;;;5013961;28;20049;-57
2022/12/14 04:27:41;;;;;;;25.27;11.25;;;21.80;99.90;;;;;;5014027;28;20088;-57
2022/12/14 04:30:10;;;;;;;29.05;12.90;;;21.80;99.90;;;;;;4980334;28;20492;-58
2022/12/14 04:32:42;;;;;;;22.40;11.27;;;21.80;99.90;;;;;;5013546;28;20022;-57
2022/12/14 04:35:08;;;;;;;23.88;11.65;;;21.80;99.90;;;;;;5013640;28;20028;-58
2022/12/14 04:37:37;;;;;;;25.05;11.57;;;21.80;99.90;;;;;;5013569;28;20145;-57
2022/12/14 04:40:19;;;;;;;24.98;11.63;;;21.80;99.90;;;;;;5013579;28;20075;-57
2022/12/14 04:42:53;;;;;;;22.15;11.32;;;21.80;99.90;;;;;;5013453;28;20018;-57
2022/12/14 04:45:30;;;;;;;24.30;11.50;;;21.80;99.90;;;;;;5013362;28;20018;-57
2022/12/14 04:48:24;;;;;;;21.80;10.38;;;21.80;99.90;;;;;;5013156;28;20033;-57
2022/12/14 04:51:01;;;;;;;22.42;10.88;;;21.80;99.90;;;;;;5002626;28;20470;-57
2022/12/14 04:53:33;;;;;;;23.85;11.20;;;21.80;99.90;;;;;;5013173;28;20531;-58
2022/12/14 04:56:05;;;;;;;18.88;10.10;;;21.80;99.90;;;;;;5013762;28;20107;-58
2022/12/14 04:58:32;;;;;;;29.10;11.82;;;21.80;99.90;;;;;;5013401;28;20026;-58
2022/12/14 05:01:16;;;;;;;23.73;9.65;;;21.80;99.90;;;;;;5014001;28;20057;-57
2022/12/14 05:03:59;;;;;;;20.25;11.00;;;21.80;99.90;;;;;;5013130;28;20100;-57
2022/12/14 05:06:37;;;;;;;18.10;9.82;;;21.80;99.90;;;;;;5012982;28;20030;-57
2022/12/14 05:09:12;;;;;;;19.63;10.18;;;21.80;99.90;;;;;;5013200;28;20030;-58
2022/12/14 05:11:41;;;;;;;17.60;8.93;;;21.70;99.90;;;;;;5012826;28;20041;-57
2022/12/14 05:14:34;;;;;;;17.48;8.98;;;21.80;99.90;;;;;;5012861;28;20025;-57
2022/12/14 05:17:04;;;;;;;21.45;9.50;;;21.80;99.90;;;;;;5012375;28;20044;-58
2022/12/14 05:19:30;;;;;;;18.70;9.45;;;21.80;99.90;;;;;;5012863;28;20022;-57
2022/12/14 05:21:55;;;;;;;16.45;8.82;;;21.80;99.90;;;;;;5012833;28;20529;-57
2022/12/14 05:24:21;;;;;;;21.92;8.45;;;21.80;99.90;;;;;;5012864;28;20433;-57
2022/12/14 05:26:47;;;;;;;22.17;10.43;;;21.80;99.90;;;;;;5012608;28;20033;-57
2022/12/14 05:29:13;;;;;;;19.30;9.30;;;21.80;99.90;;;;;;4995236;28;20022;-57
2022/12/14 05:31:39;;;;;;;18.40;8.57;;;21.80;99.90;;;;;;5012679;28;20034;-57
2022/12/14 05:34:05;;;;;;;16.42;8.88;;;21.80;99.90;;;;;;5012176;28;20026;-57
2022/12/14 05:36:31;;;;;;;23.17;8.57;;;21.80;99.90;;;;;;5012667;28;20025;-57
2022/12/14 05:38:56;;;;;;;15.15;8.45;;;21.80;99.90;;;;;;5012526;28;20531;-57
2022/12/14 05:41:22;;;;;;;16.23;8.70;;;21.80;99.90;;;;;;5012494;28;20071;-57
2022/12/14 05:43:48;;;;;;;18.00;9.35;;;21.80;99.90;;;;;;5012516;28;20057;-57
2022/12/14 05:46:14;;;;;;;19.70;8.55;;;21.80;99.90;;;;;;5012559;28;20030;-57
2022/12/14 05:48:39;;;;;;;18.45;8.40;;;21.80;99.90;;;;;;5012435;28;20033;-57
2022/12/14 05:51:10;;;;;;;19.23;9.38;;;21.70;99.90;;;;;;5012553;28;20125;-57
2022/12/14 05:53:36;;;;;;;14.48;7.72;;;21.80;99.90;;;;;;4994949;28;20048;-57
2022/12/14 05:56:04;;;;;;;23.20;8.75;;;21.80;99.90;;;;;;5012246;28;20380;-57
2022/12/14 05:58:30;;;;;;;;;;;21.80;99.90;;;;;;5012690;28;20104;-57
2022/12/14 06:01:00;;;;;;;17.60;7.65;;;21.80;99.90;;;;;;5012132;28;20002;-58
2022/12/14 06:03:26;;;;;;;13.95;7.95;;;21.70;99.90;;;;;;4994834;28;20534;-59
2022/12/14 06:05:52;;;;;;;15.57;7.57;;;21.80;99.90;;;;;;5012095;28;20021;-57
2022/12/14 06:08:17;;;;;;;16.05;7.93;;;21.70;99.90;;;;;;5012226;28;20496;-58
2022/12/14 06:10:43;;;;;;;16.83;6.95;;;21.70;99.90;;;;;;5012095;28;20030;-58
2022/12/14 06:13:09;;;;;;;13.90;7.43;;;21.70;99.90;;;;;;4994856;28;20097;-57
2022/12/14 06:15:34;;;;;;;20.30;9.10;;;21.70;99.90;;;;;;5012287;28;20535;-57
2022/12/14 06:18:00;;;;;;;15.23;7.80;;;21.70;99.90;;;;;;5012149;28;20388;-57
2022/12/14 06:20:26;;;;;;;14.82;7.95;;;21.70;99.90;;;;;;4994517;28;20542;-58
2022/12/14 06:22:54;;;;;;;17.45;7.07;;;21.70;99.90;;;;;;5011944;28;20025;-58
2022/12/14 06:25:20;;;;;;;14.00;7.10;;;21.70;99.90;;;;;;5012064;28;20026;-58
2022/12/14 06:27:46;;;;;;;13.13;6.88;;;21.70;99.90;;;;;;5012063;28;20049;-58
2022/12/14 06:30:12;;;;;;;24.67;7.88;;;21.70;99.90;;;;;;5011963;28;20061;-57
2022/12/14 06:32:38;;;;;;;15.68;7.93;;;21.70;99.90;;;;;;5012328;28;20037;-57
2022/12/14 06:35:04;;;;;;;13.32;6.95;;;21.70;99.90;;;;;;5012079;28;20022;-57
2022/12/14 06:37:30;;;;;;;12.82;6.57;;;21.70;99.90;;;;;;5011955;28;20418;-58
2022/12/14 06:39:57;;;;;;;13.70;7.07;;;21.70;99.90;;;;;;5011953;28;20026;-58
2022/12/14 06:42:23;;;;;;;14.93;7.93;;;21.70;99.90;;;;;;5011846;28;20021;-58
2022/12/14 06:44:48;;;;;;;15.93;7.25;;;21.70;99.90;;;;;;5011832;28;20377;-58
2022/12/14 06:47:14;;;;;;;13.18;7.03;;;21.70;99.90;;;;;;4997611;28;20026;-57
2022/12/14 06:49:40;;;;;;;15.75;7.90;;;21.70;99.90;;;;;;5015563;28;20480;-58
2022/12/14 06:52:06;;;;;;;14.98;6.70;;;21.70;99.90;;;;;;5015212;28;20026;-59
2022/12/14 06:54:31;;;;;;;17.45;7.43;;;21.70;99.90;;;;;;5015337;28;20096;-58
2022/12/14 06:56:57;;;;;;;16.90;6.97;;;21.70;99.90;;;;;;5015365;28;20030;-57
2022/12/14 06:59:23;;;;;;;13.65;6.43;;;21.70;99.90;;;;;;5015536;28;20021;-57
2022/12/14 07:01:48;;;;;;;12.80;6.65;;;21.70;99.90;;;;;;4997518;28;20076;-57
2022/12/14 07:04:16;;;;;;;12.30;7.10;;;21.70;99.90;;;;;;5015235;28;20395;-57
2022/12/14 07:06:42;;;;;;;14.27;6.28;;;21.70;99.90;;;;;;5015264;28;20030;-57
2022/12/14 07:09:12;;;;;;;13.82;7.15;;;21.70;99.90;;;;;;5015146;28;20034;-57
2022/12/14 07:11:37;;;;;;;18.02;7.32;;;21.70;99.90;;;;;;5015083;28;20052;-58
2022/12/14 07:14:05;;;;;;;14.80;7.00;;;21.70;99.90;;;;;;5015092;28;20026;-59
2022/12/14 07:16:32;;;;;;;12.90;6.47;;;21.70;99.90;;;;;;4997473;28;20062;-57
2022/12/14 07:18:57;;;;;;;16.15;7.07;;;21.70;99.90;;;;;;5014941;28;20033;-58
2022/12/14 07:21:24;;;;;;;15.55;8.10;;;21.70;99.90;;;;;;5014913;28;20026;-58
2022/12/14 07:23:53;;;;;;;14.80;6.47;;;21.70;99.90;;;;;;5014880;28;20025;-58
2022/12/14 07:26:21;;;;;;;15.20;6.85;;;21.60;99.90;;;;;;5014870;28;20022;-57
2022/12/14 07:28:47;;;;;;;13.00;5.85;;;21.70;99.90;;;;;;5014669;28;20044;-57
2022/12/14 07:31:17;;;;;;;14.80;6.68;;;21.60;99.90;;;;;;5014844;28;20048;-58
2022/12/14 07:33:43;;;;;;;15.82;6.57;;;21.60;99.90;;;;;;5014710;28;20088;-57
2022/12/14 07:36:12;;;;;;;15.95;6.32;;;21.60;99.90;;;;;;5014712;28;20030;-57
2022/12/14 07:38:39;;;;;;;14.10;5.88;;;21.60;99.90;;;;;;5014587;28;20014;-57
2022/12/14 07:41:07;;;;;;;14.15;6.20;;;21.60;99.90;;;;;;5014631;28;20030;-58
2022/12/14 07:43:33;;;;;;;11.77;5.15;;;21.60;99.90;;;;;;5014480;28;20034;-58
2022/12/14 07:46:04;;;;;;;15.50;6.03;;;21.60;99.90;;;;;;5014337;28;20072;-56
2022/12/14 07:48:30;;;;;;;10.45;5.32;;;21.60;99.90;;;;;;5014192;28;20476;-58
2022/12/14 07:51:08;;;;;;;16.25;5.82;;;21.60;99.90;;;;;;5014303;28;20038;-58
2022/12/14 07:53:35;;;;;;;15.65;5.65;;;21.50;99.90;;;;;;5014285;28;20109;-57
2022/12/14 07:56:07;;;;;;;11.05;5.32;;;21.50;99.90;;;;;;5014322;28;20053;-57
2022/12/14 07:58:34;;;;;;;10.50;5.38;;;21.50;99.90;;;;;;5013230;28;20034;-58
2022/12/14 08:01:13;;;;;;;9.80;5.40;;;21.50;99.90;;;;;;5013894;28;20045;-57
2022/12/14 08:03:40;;;;;;;14.43;5.88;;;21.50;99.90;;;;;;5014160;28;20100;-57
2022/12/14 08:06:07;;;;;;;;;;;21.50;99.90;;;;;;5014442;28;20460;-57
2022/12/14 08:08:33;;;;;;;13.80;6.57;;;21.50;99.90;;;;;;5014149;28;19949;-57
2022/12/14 08:10:59;;;;;;;13.10;6.15;;;21.50;99.90;;;;;;5013860;28;20117;-57
2022/12/14 08:13:25;;;;;;;10.80;5.80;;;21.50;99.90;;;;;;5013795;28;20026;-57
2022/12/14 08:15:50;;;;;;;13.52;6.18;;;21.50;99.90;;;;;;5013772;28;20084;-57
2022/12/14 08:18:16;;;;;;;13.77;5.97;;;21.50;99.90;;;;;;4996247;28;20025;-57
2022/12/14 08:20:42;;;;;;;11.30;5.57;;;21.50;99.90;;;;;;5013853;28;20156;-57
2022/12/14 08:23:08;;;;;;;11.57;5.70;;;21.50;99.90;;;;;;5013605;28;20511;-57
2022/12/14 08:25:33;;;;;;;13.00;6.05;;;21.50;99.90;;;;;;5013752;28;20026;-57
2022/12/14 08:27:59;;;;;;;12.25;6.05;;;21.50;99.90;;;;;;5013539;28;20026;-57
2022/12/14 08:30:25;;;;;;;13.05;6.75;;;21.50;99.90;;;;;;5013385;28;20476;-57
2022/12/14 08:32:50;;;;;;;10.20;5.95;;;21.50;99.90;;;;;;5013724;28;20030;-57
2022/12/14 08:35:16;;;;;;;16.98;6.55;;;21.50;99.90;;;;;;5013862;28;20022;-58
2022/12/14 08:37:42;;;;;;;12.77;5.93;;;21.50;99.90;;;;;;5013529;28;20026;-57
2022/12/14 08:40:08;;;;;;;12.85;5.60;;;21.50;99.90;;;;;;5013462;28;20022;-58
2022/12/14 08:42:34;;;;;;;11.23;5.47;;;21.50;99.90;;;;;;5013209;28;20038;-58
2022/12/14 08:45:00;;;;;;;11.18;7.15;;;21.50;99.90;;;;;;5013368;28;20026;-58
2022/12/14 08:47:25;;;;;;;11.88;5.90;;;21.50;99.90;;;;;;5013218;28;20020;-58
2022/12/14 08:49:52;;;;;;;15.30;6.05;;;21.50;99.90;;;;;;5013142;28;20396;-58
2022/12/14 08:52:20;;;;;;;15.30;6.18;;;21.50;99.90;;;;;;4995619;28;20073;-57
2022/12/14 08:54:46;;;;;;;17.83;6.68;;;21.50;99.90;;;;;;5013166;28;20037;-58
2022/12/14 08:57:11;;;;;;;15.88;6.13;;;21.50;99.90;;;;;;5012997;28;20038;-58
2022/12/14 08:59:38;;;;;;;13.50;6.47;;;21.50;99.90;;;;;;5013067;28;20029;-58
2022/12/14 09:02:04;;;;;;;12.73;5.88;;;21.50;99.90;;;;;;5012897;28;20056;-59
2022/12/14 09:04:29;;;;;;;15.75;7.25;;;21.50;99.90;;;;;;5012892;28;20030;-58
2022/12/14 09:06:56;;;;;;;13.43;7.50;;;21.50;99.90;;;;;;5012951;28;20072;-58
2022/12/14 09:09:21;;;;;;;11.55;6.47;;;21.50;99.90;;;;;;5012985;28;20373;-58
2022/12/14 09:11:47;;;;;;;15.85;6.80;;;21.50;99.90;;;;;;5012955;28;20044;-58
2022/12/14 09:14:13;;;;;;;13.25;7.38;;;21.50;99.90;;;;;;5012867;28;20140;-58
2022/12/14 09:16:40;;;;;;;16.70;7.53;;;21.50;99.90;;;;;;5012797;28;20014;-58
2022/12/14 09:19:05;;;;;;;14.70;6.30;;;21.50;99.90;;;;;;5012727;28;20029;-58
2022/12/14 09:21:31;;;;;;;15.45;6.85;;;21.50;99.90;;;;;;5012675;28;20504;-59
2022/12/14 09:23:57;;;;;;;14.10;7.07;;;21.50;99.90;;;;;;5012734;28;20022;-58
2022/12/14 09:26:24;;;;;;;13.02;6.18;;;21.50;99.90;;;;;;5012859;28;20025;-58
2022/12/14 09:28:55;;;;;;;15.10;8.27;;;21.50;99.90;;;;;;4995517;28;20022;-58
2022/12/14 09:31:23;;;;;;;14.85;7.85;;;21.50;99.90;;;;;;5012577;28;20449;-57
2022/12/14 09:33:49;;;;;;;11.48;6.47;;;21.50;99.90;;;;;;5012652;28;20413;-57
2022/12/14 09:36:21;;;;;;;16.38;8.50;;;21.50;99.90;;;;;;5012371;28;20547;-57
2022/12/14 09:38:48;;;;;;;17.40;9.93;;;21.50;99.90;;;;;;5012890;28;20026;-57
2022/12/14 09:41:41;;;;;;;14.35;9.35;;;21.50;99.90;;;;;;5012370;28;20022;-56
2022/12/14 09:44:09;;;;;;;13.43;8.63;;;21.50;99.90;;;;;;5012288;28;20076;-58
2022/12/14 09:46:57;;;;;;;16.40;8.77;;;21.50;99.90;;;;;;5012510;28;20033;-58
2022/12/14 09:49:32;;;;;;;18.77;9.25;;;21.50;99.90;;;;;;5012540;28;20080;-58
2022/12/14 09:52:00;;;;;;;14.57;9.68;;;21.50;99.90;;;;;;5012383;28;20038;-57
2022/12/14 09:54:35;;;;;;;15.25;9.35;;;21.50;99.90;;;;;;5012451;28;20028;-57
2022/12/14 09:57:34;;;;;;;15.07;8.82;;;21.50;99.90;;;;;;5012271;28;20022;-57
2022/12/14 09:59:59;;;;;;;17.55;9.18;;;21.50;99.90;;;;;;5011604;28;20127;-58
2022/12/14 10:02:31;;;;;;;21.90;10.25;;;21.50;99.90;;;;;;5012256;28;20049;-57
2022/12/14 10:05:16;;;;;;;16.42;8.13;;;21.40;99.90;;;;;;5012197;28;20022;-57
2022/12/14 10:08:19;;;;;;;16.63;8.73;;;21.50;99.90;;;;;;5012077;28;20026;-57
2022/12/14 10:11:26;;;;;;;19.10;8.57;;;21.50;99.90;;;;;;5010210;28;20442;-57
2022/12/14 10:13:57;;;;;;;16.83;9.70;;;21.50;99.90;;;;;;5012399;28;20476;-58
2022/12/14 10:16:39;;;;;;;14.82;9.98;;;21.50;99.90;;;;;;5012168;28;20038;-57
2022/12/14 10:19:32;;;;;;;16.13;9.00;;;21.50;99.90;;;;;;5012188;28;20396;-57
2022/12/14 10:22:03;;;;;;;19.90;9.00;;;21.50;99.90;;;;;;5015156;28;20018;-58
2022/12/14 10:24:43;;;;;;;16.70;10.27;;;21.50;99.90;;;;;;5015931;28;20080;-57
2022/12/14 10:27:13;;;;;;;15.63;9.77;;;21.40;99.90;;;;;;5015741;28;20029;-57
2022/12/14 10:29:53;;;;;;;18.60;10.70;;;21.40;99.90;;;;;;5015649;28;20060;-57
2022/12/14 10:32:44;;;;;;;14.07;9.45;;;21.40;99.90;;;;;;4998195;28;20117;-57
2022/12/14 10:35:16;;;;;;;17.05;9.20;;;21.40;99.90;;;;;;5015563;28;20431;-57
2022/12/14 10:38:17;;;;;;;18.02;9.18;;;21.40;99.90;;;;;;5015739;28;20018;-57
2022/12/14 10:40:48;;;;;;;15.05;9.13;;;21.40;99.90;;;;;;4964570;28;20037;-57
2022/12/14 10:43:33;;;;;;;19.65;10.00;;;21.40;99.90;;;;;;5015595;28;20037;-57
2022/12/14 10:46:19;;;;;;;15.60;9.43;;;21.40;99.90;;;;;;5015563;28;20041;-58
2022/12/14 10:48:51;;;;;;;15.48;9.43;;;21.40;99.90;;;;;;4998059;28;20030;-57
2022/12/14 10:52:04;;;;;;;18.27;9.60;;;21.40;99.90;;;;;;5015367;28;20638;-58
2022/12/14 10:54:30;;;;;;;16.88;9.07;;;21.40;99.90;;;;;;4954800;29;20031;-58
2022/12/14 10:56:55;;;;;;;17.15;8.82;;;21.40;99.90;;;;;;5007944;28;20100;-57
2022/12/14 10:59:22;;;;;;;14.85;8.70;;;21.40;99.90;;;;;;5015219;28;20029;-57
2022/12/14 11:02:02;;;;;;;18.47;9.17;;;21.40;99.90;;;;;;5015103;28;20574;-57
2022/12/14 11:04:54;;;;;;;16.45;8.00;;;21.40;99.90;;;;;;5015171;28;20251;-57
2022/12/14 11:07:36;;;;;;;13.63;8.32;;;21.40;99.90;;;;;;5015188;28;20092;-58
2022/12/14 11:10:26;;;;;;;14.80;8.35;;;21.40;99.90;;;;;;5015039;28;20056;-57
2022/12/14 11:12:55;;;;;;;13.82;8.50;;;21.40;99.90;;;;;;5014961;28;20030;-58
2022/12/14 11:15:34;;;;;;;18.25;9.07;;;21.40;99.90;;;;;;5014962;28;20033;-57
2022/12/14 11:18:14;;;;;;;17.10;8.85;;;21.40;99.90;;;;;;5014800;28;20054;-58
2022/12/14 11:20:55;;;;;;;16.10;7.75;;;21.40;99.90;;;;;;5014792;28;20076;-57
2022/12/14 11:23:44;;;;;;;15.38;8.43;;;21.40;99.90;;;;;;5014820;28;20026;-58
2022/12/14 11:26:27;;;;;;;15.00;8.18;;;21.40;99.90;;;;;;5014896;28;20033;-57
2022/12/14 11:28:56;;;;;;;16.38;7.85;;;21.40;99.90;;;;;;5014745;28;20476;-57
2022/12/14 11:31:43;;;;;;;17.30;7.32;;;21.40;99.90;;;;;;5014041;28;20121;-58
2022/12/14 11:34:39;;;;;;;13.27;7.82;;;21.40;99.90;;;;;;5021254;28;20439;-57
2022/12/14 11:37:20;;;;;;;13.43;8.25;;;21.40;99.90;;;;;;5020664;28;20022;-57
2022/12/14 11:39:50;;;;;;;17.02;8.48;;;21.40;99.90;;;;;;5023233;28;20488;-57
2022/12/14 11:42:18;;;;;;;13.88;7.05;;;21.40;99.90;;;;;;5020471;28;20105;-58
2022/12/14 11:44:46;;;;;;;13.10;7.13;;;21.40;99.90;;;;;;5005749;28;20033;-57
2022/12/14 11:47:18;;;;;;;17.10;7.07;;;21.40;99.90;;;;;;5014206;28;20378;-57
2022/12/14 11:49:47;;;;;;;14.48;6.70;;;21.40;99.90;;;;;;5021588;28;20029;-57
2022/12/14 11:52:22;;;;;;;12.13;6.25;;;21.40;99.90;;;;;;5034072;28;20059;-59
2022/12/14 11:55:09;;;;;;;16.63;7.00;;;21.40;99.90;;;;;;5016268;28;20510;-61
2022/12/14 11:57:40;;;;;;;12.48;7.07;;;21.40;99.90;;;;;;5033909;28;20025;-54
2022/12/14 12:00:18;;;;;;;14.65;7.38;;;21.40;99.90;;;;;;5030684;28;20077;-54
2022/12/14 12:02:53;;;;;;;12.15;6.78;;;21.40;99.90;;;;;;5021029;28;20041;-54
2022/12/14 12:05:21;;;;;;;14.80;7.20;;;21.40;99.90;;;;;;5023522;28;20021;-53
2022/12/14 12:07:49;;;;;;;20.73;7.22;;;21.40;99.90;;;;;;5014096;28;20030;-55
2022/12/14 12:10:22;;;;;;;13.55;6.95;;;21.40;99.90;;;;;;5013855;28;20068;-55
2022/12/14 12:13:03;;;;;;;14.52;7.30;;;21.40;99.90;;;;;;5014022;28;20537;-54
2022/12/14 12:15:39;;;;;;;19.02;7.22;;;21.40;99.90;;;;;;5014122;28;20061;-54
2022/12/14 12:18:14;;;;;;;11.30;6.13;;;21.40;99.90;;;;;;5013739;28;20033;-55
2022/12/14 12:21:01;;;;;;;18.45;8.10;;;21.40;99.90;;;;;;4996187;28;20049;-54
2022/12/14 12:23:45;;;;;;;26.40;7.97;;;21.40;99.90;;;;;;5013574;28;20026;-54
2022/12/14 12:26:34;;;;;;;14.10;7.32;;;21.40;99.90;;;;;;5013615;28;20040;-55
2022/12/14 12:29:15;;;;;;;16.17;8.38;;;21.40;99.90;;;;;;5013676;28;20018;-51
2022/12/14 12:31:54;;;;;;;16.40;7.38;;;21.40;99.90;;;;;;5013458;28;20042;-54
2022/12/14 12:34:44;;;;;;;17.25;6.05;;;21.40;99.90;;;;;;5013565;28;20028;-57
2022/12/14 12:37:21;;;;;;;13.05;4.78;;;21.40;99.90;;;;;;4995782;28;20431;-57
2022/12/14 12:39:56;;;;;;;11.07;4.40;;;21.40;99.90;;;;;;5013560;28;20018;-57
2022/12/14 12:42:43;;;;;;;11.90;3.97;;;21.40;99.90;;;;;;5013356;28;20029;-56
2022/12/14 12:45:17;;;;;;;10.45;4.80;;;21.40;99.90;;;;;;5013157;28;20061;-57
2022/12/14 12:48:10;;;;;;;15.32;4.80;;;21.40;99.90;;;;;;5013250;28;20028;-56
2022/12/14 12:50:41;;;;;;;16.17;4.57;;;21.40;99.90;;;;;;5012393;28;20595;-56
2022/12/14 12:53:27;;;;;;;18.27;5.30;;;21.40;99.90;;;;;;5013277;28;20026;-56
2022/12/14 12:56:03;;;;;;;10.88;4.20;;;21.40;99.90;;;;;;5013104;28;20068;-56
2022/12/14 12:58:32;;;;;;;9.40;4.53;;;21.40;99.90;;;;;;5013082;28;20029;-56
2022/12/14 13:01:04;;;;;;;15.57;4.63;;;21.30;99.90;;;;;;5011504;28;20505;-56
2022/12/14 13:03:44;;;;;;;17.05;5.55;;;21.30;99.90;;;;;;5013020;28;20076;-56
2022/12/14 13:06:39;;;;;;;15.85;4.60;;;21.30;99.90;;;;;;5011726;28;20018;-56
2022/12/14 13:09:39;;;;;;;14.75;4.97;;;21.30;99.90;;;;;;5011609;28;20021;-55
2022/12/14 13:12:26;;;;;;;12.40;4.75;;;21.30;99.90;;;;;;5009613;28;20085;-54